Time;durP1;ratioP1;P1;durP2;ratioP2;P2;SDS_P1;SDS_P2;PMS_P1;PMS_P2;Temp;Humidity;BMP_temperature;BMP_pressure;BME280_temperature;BME280_humidity;BME280_pressure;Samples;Min_cycle;Max_cycle;Signal;HPM_P1;HPM_P2
2023/04/18 00:01:37;;;;;;;5.70;3.53;;;;;;;;;;4972885;28;20396;-76
2023/04/18 00:04:04;;;;;;;10.30;4.03;;;;;;;;;;4981091;28;20036;-76
2023/04/18 00:06:36;;;;;;;13.75;3.30;;;;;;;;;;4994147;28;20509;-75
2023/04/18 00:09:02;;;;;;;6.32;3.53;;;;;;;;;;4986816;28;20158;-77
2023/04/18 00:11:29;;;;;;;10.07;3.63;;;;;;;;;;4999102;28;20469;-78
2023/04/18 00:13:56;;;;;;;5.45;3.10;;;;;;;;;;4991410;28;20034;-76
2023/04/18 00:16:22;;;;;;;6.10;3.10;;;;;;;;;;4989526;28;20061;-76
2023/04/18 00:18:49;;;;;;;10.85;3.60;;;;;;;;;;4994075;28;20062;-78
2023/04/18 00:21:15;;;;;;;7.30;3.55;;;;;;;;;;4992505;28;20430;-77
2023/04/18 00:23:42;;;;;;;7.60;3.70;;;;;;;;;;4991114;28;20030;-78
2023/04/18 00:26:08;;;;;;;9.90;4.53;;;;;;;;;;5008128;28;20037;-76
2023/04/18 00:28:34;;;;;;;6.95;3.85;;;;;;;;;;4993086;28;20123;-76
2023/04/18 00:31:00;;;;;;;7.32;3.90;;;;;;;;;;4999855;28;20081;-76
2023/04/18 00:33:27;;;;;;;9.73;4.68;;;;;;;;;;4992421;28;20089;-76
2023/04/18 00:35:53;;;;;;;10.55;4.63;;;;;;;;;;4991184;28;20045;-76
2023/04/18 00:38:19;;;;;;;8.68;4.13;;;;;;;;;;4992209;28;20583;-76
2023/04/18 00:40:45;;;;;;;8.95;3.65;;;;;;;;;;4975259;28;20105;-76
2023/04/18 00:43:15;;;;;;;8.95;4.15;;;;;;;;;;4994853;28;20034;-77
2023/04/18 00:45:42;;;;;;;9.50;3.97;;;;;;;;;;4992441;28;20030;-76
2023/04/18 00:48:08;;;;;;;7.53;3.97;;;;;;;;;;4990662;28;20030;-76
2023/04/18 00:50:36;;;;;;;8.93;3.88;;;;;;;;;;4996427;28;20042;-76
2023/04/18 00:53:02;;;;;;;6.57;4.10;;;;;;;;;;4995940;28;20026;-77
2023/04/18 00:55:29;;;;;;;6.32;3.95;;;;;;;;;;4998559;28;20030;-77
2023/04/18 00:57:55;;;;;;;8.30;3.65;;;;;;;;;;4994498;28;20494;-77
2023/04/18 01:00:21;;;;;;;7.13;3.97;;;;;;;;;;4988781;28;20096;-76
2023/04/18 01:02:51;;;;;;;9.45;3.78;;;;;;;;;;4990835;28;20030;-76
2023/04/18 01:05:19;;;;;;;6.13;3.58;;;;;;;;;;4989951;28;20042;-76
2023/04/18 01:07:46;;;;;;;6.45;3.53;;;;;;;;;;4987482;28;20022;-77
2023/04/18 01:10:12;;;;;;;12.45;5.10;;;;;;;;;;4984057;28;20077;-78
2023/04/18 01:12:39;;;;;;;6.00;3.80;;;;;;;;;;4989100;28;20065;-77
2023/04/18 01:15:05;;;;;;;6.00;3.53;;;;;;;;;;4990624;28;20503;-77
2023/04/18 01:17:33;;;;;;;6.32;3.58;;;;;;;;;;4983700;28;20085;-77
2023/04/18 01:20:00;;;;;;;4.95;3.80;;;;;;;;;;4988209;28;20871;-77
2023/04/18 01:22:27;;;;;;;6.80;3.60;;;;;;;;;;4983799;28;20030;-77
2023/04/18 01:24:54;;;;;;;6.25;3.25;;;;;;;;;;4986034;28;20452;-77
2023/04/18 01:27:20;;;;;;;7.50;3.45;;;;;;;;;;4995159;28;20157;-77
2023/04/18 01:29:47;;;;;;;13.25;3.95;;;;;;;;;;4988118;28;20041;-77
2023/04/18 01:32:13;;;;;;;4.95;2.90;;;;;;;;;;4986178;28;20030;-76
2023/04/18 01:34:39;;;;;;;5.43;3.20;;;;;;;;;;4984483;28;20164;-76
2023/04/18 01:37:05;;;;;;;7.57;3.88;;;;;;;;;;4992018;28;20492;-77
2023/04/18 01:39:31;;;;;;;5.07;3.10;;;;;;;;;;4967565;28;20036;-77
2023/04/18 01:41:57;;;;;;;6.05;3.33;;;;;;;;;;4967200;28;20419;-76
2023/04/18 01:44:23;;;;;;;6.13;3.78;;;;;;;;;;4989119;28;20033;-79
2023/04/18 01:46:50;;;;;;;5.75;3.30;;;;;;;;;;4984650;28;20081;-77
2023/04/18 01:49:16;;;;;;;10.10;3.72;;;;;;;;;;4982157;28;20097;-76
2023/04/18 01:51:42;;;;;;;6.90;3.75;;;;;;;;;;4987825;28;20104;-76
2023/04/18 01:54:09;;;;;;;8.25;3.90;;;;;;;;;;4983747;28;20042;-76
2023/04/18 01:56:35;;;;;;;6.32;3.35;;;;;;;;;;4986849;28;20018;-78
2023/04/18 01:59:01;;;;;;;7.32;3.85;;;;;;;;;;4986100;28;20022;-77
2023/04/18 02:01:27;;;;;;;7.22;3.60;;;;;;;;;;4982764;28;21131;-77
2023/04/18 02:03:53;;;;;;;6.40;3.55;;;;;;;;;;4986846;28;20036;-77
2023/04/18 02:06:20;;;;;;;6.97;3.42;;;;;;;;;;4990272;28;20022;-76
2023/04/18 02:08:46;;;;;;;5.18;3.83;;;;;;;;;;4990538;28;20128;-77
2023/04/18 02:11:12;;;;;;;7.03;3.67;;;;;;;;;;4984212;28;20042;-77
2023/04/18 02:13:38;;;;;;;8.63;3.95;;;;;;;;;;4986960;28;20033;-75
2023/04/18 02:16:05;;;;;;;6.20;4.07;;;;;;;;;;4983978;28;20110;-77
2023/04/18 02:18:33;;;;;;;12.30;4.90;;;;;;;;;;4984170;28;20121;-78
2023/04/18 02:20:59;;;;;;;9.15;4.00;;;;;;;;;;4985876;28;20037;-77
2023/04/18 02:23:27;;;;;;;6.97;3.80;;;;;;;;;;4983142;28;20794;-77
2023/04/18 02:25:53;;;;;;;5.43;3.97;;;;;;;;;;4986991;28;20040;-79
2023/04/18 02:28:19;;;;;;;7.57;4.10;;;;;;;;;;4964192;28;20129;-76
2023/04/18 02:30:46;;;;;;;5.57;3.92;;;;;;;;;;4986706;28;20188;-78
2023/04/18 02:33:12;;;;;;;8.52;3.95;;;;;;;;;;4982773;28;20550;-75
2023/04/18 02:35:38;;;;;;;7.25;3.70;;;;;;;;;;4983242;28;20611;-76
2023/04/18 02:38:05;;;;;;;9.85;3.80;;;;;;;;;;4987807;28;20038;-76
2023/04/18 02:40:31;;;;;;;9.35;3.92;;;;;;;;;;4984659;28;20010;-77
2023/04/18 02:42:57;;;;;;;7.00;4.07;;;;;;;;;;4986070;28;20033;-76
2023/04/18 02:45:24;;;;;;;6.15;3.50;;;;;;;;;;4983278;28;20053;-77
2023/04/18 02:47:50;;;;;;;5.70;3.65;;;;;;;;;;4984850;28;20018;-77
2023/04/18 02:50:16;;;;;;;7.82;4.20;;;;;;;;;;4983552;28;20465;-77
2023/04/18 02:52:42;;;;;;;8.35;4.18;;;;;;;;;;4985168;28;20467;-77
2023/04/18 02:55:09;;;;;;;7.97;3.72;;;;;;;;;;4985093;28;20034;-77
2023/04/18 02:57:35;;;;;;;8.13;3.85;;;;;;;;;;4987044;28;20078;-77
2023/04/18 03:00:01;;;;;;;6.82;3.88;;;;;;;;;;4983838;28;20022;-76
2023/04/18 03:02:27;;;;;;;5.80;3.50;;;;;;;;;;4985188;28;20030;-77
2023/04/18 03:04:55;;;;;;;8.00;4.15;;;;;;;;;;4982708;28;20038;-76
2023/04/18 03:07:21;;;;;;;7.50;3.92;;;;;;;;;;4980799;28;20590;-77
2023/04/18 03:09:47;;;;;;;8.48;4.25;;;;;;;;;;4983475;28;20047;-78
2023/04/18 03:12:13;;;;;;;7.78;4.30;;;;;;;;;;4982627;28;20093;-76
2023/04/18 03:14:40;;;;;;;9.88;4.18;;;;;;;;;;4979874;28;20049;-76
2023/04/18 03:17:06;;;;;;;6.38;4.53;;;;;;;;;;4983049;28;20375;-77
2023/04/18 03:19:32;;;;;;;9.32;4.10;;;;;;;;;;4982321;28;20054;-77
2023/04/18 03:21:58;;;;;;;7.90;4.20;;;;;;;;;;4976532;28;20045;-77
2023/04/18 03:24:24;;;;;;;4.57;3.75;;;;;;;;;;4980034;28;20497;-76
2023/04/18 03:26:50;;;;;;;6.55;3.72;;;;;;;;;;4969050;28;20531;-76
2023/04/18 03:29:17;;;;;;;7.72;4.50;;;;;;;;;;4967139;28;20402;-76
2023/04/18 03:31:43;;;;;;;6.20;3.58;;;;;;;;;;4986994;28;20022;-77
2023/04/18 03:34:09;;;;;;;8.40;4.65;;;;;;;;;;4982231;28;20030;-76
2023/04/18 03:36:35;;;;;;;6.55;3.90;;;;;;;;;;4991250;28;20021;-76
2023/04/18 03:39:01;;;;;;;6.75;3.97;;;;;;;;;;4982403;28;20601;-75
2023/04/18 03:41:27;;;;;;;5.90;3.72;;;;;;;;;;4981667;28;20092;-77
2023/04/18 03:43:54;;;;;;;7.32;3.83;;;;;;;;;;4964411;28;20042;-76
2023/04/18 03:46:20;;;;;;;10.40;4.30;;;;;;;;;;4982001;28;20029;-78
2023/04/18 03:48:47;;;;;;;6.78;4.18;;;;;;;;;;4980518;28;20054;-76
2023/04/18 03:51:13;;;;;;;9.43;4.07;;;;;;;;;;4979901;28;20470;-76
2023/04/18 03:53:39;;;;;;;6.00;3.75;;;;;;;;;;4981721;28;20763;-77
2023/04/18 03:56:06;;;;;;;6.90;3.85;;;;;;;;;;4983914;28;20761;-78
2023/04/18 03:58:32;;;;;;;7.75;4.18;;;;;;;;;;4982351;28;20038;-77
2023/04/18 04:00:59;;;;;;;8.15;3.80;;;;;;;;;;4981131;28;20061;-77
2023/04/18 04:03:26;;;;;;;6.05;4.10;;;;;;;;;;4980842;28;20019;-77
2023/04/18 04:05:53;;;;;;;7.40;3.95;;;;;;;;;;4981006;28;20050;-77
2023/04/18 04:08:20;;;;;;;12.90;3.90;;;;;;;;;;4982107;28;20037;-77
2023/04/18 04:10:46;;;;;;;9.38;4.30;;;;;;;;;;4980416;28;20050;-76
2023/04/18 04:13:12;;;;;;;6.47;3.90;;;;;;;;;;4980789;28;20035;-76
2023/04/18 04:15:38;;;;;;;6.60;3.75;;;;;;;;;;4983144;28;20023;-76
2023/04/18 04:18:05;;;;;;;13.15;4.30;;;;;;;;;;4979642;28;20093;-79
2023/04/18 04:20:32;;;;;;;9.02;3.92;;;;;;;;;;4983268;28;20037;-77
2023/04/18 04:22:58;;;;;;;6.28;3.47;;;;;;;;;;4981727;28;20145;-79
2023/04/18 04:25:29;;;;;;;7.25;3.97;;;;;;;;;;4983368;28;20038;-76
2023/04/18 04:27:56;;;;;;;9.70;4.43;;;;;;;;;;4977641;28;20034;-77
2023/04/18 04:30:22;;;;;;;6.72;3.33;;;;;;;;;;4982489;28;20114;-78
2023/04/18 04:32:48;;;;;;;6.78;3.42;;;;;;;;;;4986683;28;20098;-77
2023/04/18 04:35:14;;;;;;;6.78;3.50;;;;;;;;;;4987301;28;20040;-76
2023/04/18 04:37:42;;;;;;;10.63;4.20;;;;;;;;;;4986980;28;20093;-76
2023/04/18 04:40:09;;;;;;;6.28;3.90;;;;;;;;;;4981995;28;20030;-76
2023/04/18 04:42:35;;;;;;;13.40;4.70;;;;;;;;;;4978476;28;20022;-76
2023/04/18 04:45:02;;;;;;;7.00;3.72;;;;;;;;;;4983778;28;20117;-76
2023/04/18 04:47:28;;;;;;;5.35;3.42;;;;;;;;;;4981877;28;20029;-76
2023/04/18 04:49:54;;;;;;;7.90;3.83;;;;;;;;;;4991257;28;20432;-76
2023/04/18 04:52:21;;;;;;;6.03;3.67;;;;;;;;;;4982564;28;20053;-76
2023/04/18 04:54:47;;;;;;;11.18;4.15;;;;;;;;;;4994749;28;20022;-78
2023/04/18 04:57:14;;;;;;;6.18;3.40;;;;;;;;;;4981622;28;20030;-76
2023/04/18 04:59:40;;;;;;;6.22;4.20;;;;;;;;;;4980144;28;20026;-77
2023/04/18 05:02:06;;;;;;;6.88;3.63;;;;;;;;;;4991173;28;20466;-78
2023/04/18 05:04:33;;;;;;;7.43;3.63;;;;;;;;;;4984155;28;20066;-78
2023/04/18 05:06:59;;;;;;;6.93;3.65;;;;;;;;;;4988624;28;20030;-76
2023/04/18 05:09:25;;;;;;;5.80;3.10;;;;;;;;;;4983637;28;20097;-77
2023/04/18 05:11:51;;;;;;;5.47;3.40;;;;;;;;;;4988050;28;20524;-77
2023/04/18 05:14:19;;;;;;;6.57;3.65;;;;;;;;;;4984133;28;20434;-78
2023/04/18 05:16:45;;;;;;;7.18;3.47;;;;;;;;;;4988459;28;20026;-78
2023/04/18 05:19:12;;;;;;;6.45;3.35;;;;;;;;;;4982110;28;20042;-76
2023/04/18 05:21:38;;;;;;;4.55;3.20;;;;;;;;;;4985556;28;20364;-78
2023/04/18 05:24:04;;;;;;;6.25;3.50;;;;;;;;;;4990524;28;20033;-79
2023/04/18 05:26:30;;;;;;;6.05;3.10;;;;;;;;;;4994118;28;20053;-79
2023/04/18 05:28:56;;;;;;;4.75;3.47;;;;;;;;;;4986244;28;20015;-80
2023/04/18 05:31:23;;;;;;;6.30;3.35;;;;;;;;;;4986723;28;20113;-79
2023/04/18 05:33:49;;;;;;;6.47;3.47;;;;;;;;;;4982483;28;20541;-78
2023/04/18 05:36:15;;;;;;;6.38;3.17;;;;;;;;;;4992083;28;20680;-78
2023/04/18 05:38:41;;;;;;;6.05;3.20;;;;;;;;;;4984515;28;20056;-79
2023/04/18 05:41:07;;;;;;;4.85;3.42;;;;;;;;;;4988616;28;20028;-78
2023/04/18 05:43:33;;;;;;;6.53;3.30;;;;;;;;;;4983043;28;20022;-78
2023/04/18 05:46:00;;;;;;;6.43;3.70;;;;;;;;;;4984005;28;20042;-78
2023/04/18 05:48:26;;;;;;;9.18;3.85;;;;;;;;;;4984254;28;20558;-80
2023/04/18 05:50:52;;;;;;;5.10;3.30;;;;;;;;;;4990866;28;20546;-85
2023/04/18 05:53:19;;;;;;;8.25;3.38;;;;;;;;;;4983393;28;20163;-79
2023/04/18 05:55:47;;;;;;;6.25;3.15;;;;;;;;;;4982728;28;20023;-81
2023/04/18 05:58:13;;;;;;;7.45;3.58;;;;;;;;;;4990131;28;20663;-80
2023/04/18 06:00:39;;;;;;;5.85;3.08;;;;;;;;;;4982387;28;20017;-80
2023/04/18 06:03:06;;;;;;;8.95;3.85;;;;;;;;;;4980760;28;20065;-81
2023/04/18 06:05:32;;;;;;;3.85;3.05;;;;;;;;;;4965283;28;20293;-80
2023/04/18 06:07:58;;;;;;;3.10;2.80;;;;;;;;;;4994529;28;20719;-81
2023/04/18 06:10:24;;;;;;;8.32;3.10;;;;;;;;;;4990215;28;20069;-80
2023/04/18 06:12:51;;;;;;;5.50;3.30;;;;;;;;;;4978176;28;20030;-80
2023/04/18 06:15:17;;;;;;;7.78;3.47;;;;;;;;;;4984833;28;20022;-76
2023/04/18 06:17:43;;;;;;;7.75;3.08;;;;;;;;;;4985200;28;20053;-79
2023/04/18 06:20:10;;;;;;;5.03;3.13;;;;;;;;;;4986448;28;20054;-79
2023/04/18 06:22:36;;;;;;;6.25;3.30;;;;;;;;;;4986315;28;20407;-80
2023/04/18 06:25:02;;;;;;;4.88;3.15;;;;;;;;;;4985129;28;20030;-79
2023/04/18 06:27:28;;;;;;;3.70;3.00;;;;;;;;;;4985823;28;20109;-79
2023/04/18 06:29:55;;;;;;;7.10;3.28;;;;;;;;;;4985740;28;20034;-77
2023/04/18 06:32:21;;;;;;;5.88;3.30;;;;;;;;;;4983840;28;20022;-79
2023/04/18 06:34:47;;;;;;;4.47;2.75;;;;;;;;;;4986808;28;20022;-79
2023/04/18 06:37:13;;;;;;;3.75;2.85;;;;;;;;;;4985753;28;20026;-78
2023/04/18 06:39:39;;;;;;;5.20;3.22;;;;;;;;;;4989385;28;20034;-79
2023/04/18 06:42:06;;;;;;;4.40;2.75;;;;;;;;;;4977487;28;20037;-78
2023/04/18 06:44:32;;;;;;;4.78;2.63;;;;;;;;;;4984325;28;20037;-77
2023/04/18 06:46:58;;;;;;;4.05;2.75;;;;;;;;;;4987484;28;21052;-77
2023/04/18 06:49:24;;;;;;;3.75;2.80;;;;;;;;;;4980700;28;20027;-78
2023/04/18 06:51:50;;;;;;;4.18;2.58;;;;;;;;;;4708530;28;20936;-76
2023/04/18 06:54:16;;;;;;;4.70;2.90;;;;;;;;;;4977358;28;20028;-78
2023/04/18 06:56:43;;;;;;;4.00;3.10;;;;;;;;;;4982024;28;20053;-78
2023/04/18 06:59:09;;;;;;;3.92;2.85;;;;;;;;;;4981504;28;20095;-77
2023/04/18 07:01:40;;;;;;;3.17;2.50;;;;;;;;;;4982215;28;20037;-78
2023/04/18 07:04:06;;;;;;;4.70;2.70;;;;;;;;;;4983497;28;20030;-79
2023/04/18 07:06:33;;;;;;;2.97;2.35;;;;;;;;;;4983338;28;20034;-79
2023/04/18 07:09:00;;;;;;;4.90;3.10;;;;;;;;;;4981056;28;20569;-79
2023/04/18 07:11:27;;;;;;;4.55;2.97;;;;;;;;;;4988717;28;20034;-79
2023/04/18 07:13:53;;;;;;;6.07;2.50;;;;;;;;;;4985049;28;20027;-80
2023/04/18 07:16:19;;;;;;;6.20;3.20;;;;;;;;;;4984759;28;20042;-79
2023/04/18 07:18:46;;;;;;;4.18;2.88;;;;;;;;;;4982668;28;20042;-75
2023/04/18 07:21:12;;;;;;;4.30;3.33;;;;;;;;;;4984854;28;20030;-78
2023/04/18 07:23:38;;;;;;;3.42;2.80;;;;;;;;;;4983452;28;20614;-79
2023/04/18 07:26:04;;;;;;;4.35;2.85;;;;;;;;;;4982635;28;20442;-78
2023/04/18 07:28:31;;;;;;;5.35;2.85;;;;;;;;;;4983325;28;20033;-79
2023/04/18 07:30:57;;;;;;;4.75;2.60;;;;;;;;;;4983795;28;20022;-79
2023/04/18 07:33:24;;;;;;;3.28;2.63;;;;;;;;;;4981922;28;20033;-80
2023/04/18 07:35:51;;;;;;;5.47;3.10;;;;;;;;;;4985157;28;20022;-79
2023/04/18 07:38:17;;;;;;;3.53;2.70;;;;;;;;;;4983019;28;20077;-79
2023/04/18 07:40:47;;;;;;;4.38;2.80;;;;;;;;;;4983982;28;20554;-78
2023/04/18 07:43:13;;;;;;;3.35;3.03;;;;;;;;;;4982399;28;20034;-78
2023/04/18 07:45:41;;;;;;;5.57;2.80;;;;;;;;;;4983488;28;20558;-78
2023/04/18 07:48:08;;;;;;;4.10;3.10;;;;;;;;;;4984545;28;20031;-79
2023/04/18 07:50:34;;;;;;;5.72;3.22;;;;;;;;;;4973239;28;20390;-79
2023/04/18 07:53:00;;;;;;;8.10;3.17;;;;;;;;;;4980305;28;20018;-79
2023/04/18 07:55:27;;;;;;;5.97;3.20;;;;;;;;;;4983490;28;20030;-79
2023/04/18 07:57:53;;;;;;;5.18;2.72;;;;;;;;;;4983722;28;20041;-79
2023/04/18 08:00:19;;;;;;;5.22;2.90;;;;;;;;;;4984003;28;20026;-77
2023/04/18 08:02:45;;;;;;;6.32;3.22;;;;;;;;;;4965278;28;20026;-77
2023/04/18 08:05:12;;;;;;;3.95;2.92;;;;;;;;;;4985258;28;20649;-77
2023/04/18 08:07:38;;;;;;;2.63;2.17;;;;;;;;;;4984735;28;20026;-79
2023/04/18 08:10:04;;;;;;;3.72;2.25;;;;;;;;;;4982701;28;20034;-78
2023/04/18 08:12:31;;;;;;;4.00;2.42;;;;;;;;;;4985502;28;20053;-77
2023/04/18 08:14:57;;;;;;;3.85;2.50;;;;;;;;;;4980564;28;20046;-77
2023/04/18 08:17:23;;;;;;;3.70;2.60;;;;;;;;;;4981256;28;20010;-78
2023/04/18 08:19:50;;;;;;;4.72;2.97;;;;;;;;;;4983273;28;20100;-78
2023/04/18 08:22:16;;;;;;;3.95;2.88;;;;;;;;;;4981582;28;20117;-78
2023/04/18 08:24:42;;;;;;;2.70;2.35;;;;;;;;;;4981713;28;20030;-77
2023/04/18 08:27:08;;;;;;;5.78;3.00;;;;;;;;;;4983164;28;20101;-78
2023/04/18 08:29:35;;;;;;;5.18;2.70;;;;;;;;;;4986186;28;20084;-78
2023/04/18 08:32:01;;;;;;;3.00;2.60;;;;;;;;;;4986128;28;20483;-78
2023/04/18 08:34:28;;;;;;;4.78;2.35;;;;;;;;;;4968111;28;20037;-77
2023/04/18 08:36:54;;;;;;;3.55;2.20;;;;;;;;;;4985936;28;20053;-77
2023/04/18 08:39:20;;;;;;;4.05;2.38;;;;;;;;;;4986207;28;20054;-77
2023/04/18 08:41:51;;;;;;;3.08;2.40;;;;;;;;;;4990862;28;20105;-80
2023/04/18 08:44:17;;;;;;;4.45;2.78;;;;;;;;;;4985913;28;20044;-81
2023/04/18 08:46:45;;;;;;;4.97;2.75;;;;;;;;;;4985800;28;20629;-78
2023/04/18 08:49:11;;;;;;;8.52;3.03;;;;;;;;;;4986384;28;20037;-79
2023/04/18 08:51:40;;;;;;;3.25;2.67;;;;;;;;;;4986514;28;20356;-80
2023/04/18 08:54:06;;;;;;;4.15;2.67;;;;;;;;;;4986323;28;20027;-79
2023/04/18 08:56:36;;;;;;;3.95;2.40;;;;;;;;;;4986955;28;20010;-80
2023/04/18 08:59:02;;;;;;;4.07;2.40;;;;;;;;;;4986409;28;20026;-77
2023/04/18 09:01:47;;;;;;;8.25;2.80;;;;;;;;;;4983842;28;20019;-79
2023/04/18 09:04:31;;;;;;;4.32;2.25;;;;;;;;;;4984405;28;20030;-79
2023/04/18 09:06:57;;;;;;;2.85;2.20;;;;;;;;;;4984637;28;20109;-79
2023/04/18 09:09:26;;;;;;;4.03;2.40;;;;;;;;;;4984522;28;20503;-79
2023/04/18 09:12:06;;;;;;;3.22;2.55;;;;;;;;;;4985658;28;20039;-78
2023/04/18 09:14:32;;;;;;;2.75;2.22;;;;;;;;;;4985932;28;20022;-78
2023/04/18 09:16:59;;;;;;;3.20;2.30;;;;;;;;;;4984559;28;20019;-79
2023/04/18 09:19:25;;;;;;;2.72;2.33;;;;;;;;;;4985739;28;20455;-80
2023/04/18 09:21:57;;;;;;;3.95;2.55;;;;;;;;;;4985856;28;20395;-78
2023/04/18 09:24:25;;;;;;;;;;;;;;;;;;4985321;28;20237;-78
2023/04/18 09:26:52;;;;;;;3.67;2.35;;;;;;;;;;4986336;28;20393;-77
2023/04/18 09:29:22;;;;;;;3.38;2.45;;;;;;;;;;4984423;28;20027;-77
2023/04/18 09:31:56;;;;;;;3.35;2.65;;;;;;;;;;4985426;28;20179;-79
2023/04/18 09:34:25;;;;;;;3.05;2.50;;;;;;;;;;4984321;28;20106;-79
2023/04/18 09:37:10;;;;;;;6.00;2.85;;;;;;;;;;4985931;28;20061;-78
2023/04/18 09:39:38;;;;;;;3.92;2.75;;;;;;;;;;4998929;28;20045;-77
2023/04/18 09:42:04;;;;;;;3.30;2.50;;;;;;;;;;4983820;28;20050;-80
2023/04/18 09:44:30;;;;;;;2.80;2.30;;;;;;;;;;4984965;28;20431;-78
2023/04/18 09:46:57;;;;;;;3.92;3.05;;;;;;;;;;4985910;28;20101;-78
2023/04/18 09:49:23;;;;;;;3.28;2.55;;;;;;;;;;4983691;28;20588;-80
2023/04/18 09:51:50;;;;;;;3.95;2.47;;;;;;;;;;4984701;28;20601;-78
2023/04/18 09:54:18;;;;;;;2.72;2.30;;;;;;;;;;4984858;28;20092;-76
2023/04/18 09:56:45;;;;;;;4.65;2.60;;;;;;;;;;4985602;28;20026;-81
2023/04/18 09:59:12;;;;;;;3.85;2.50;;;;;;;;;;4983013;28;20026;-78
2023/04/18 10:01:44;;;;;;;6.90;2.90;;;;;;;;;;4984916;28;20105;-78
2023/04/18 10:04:11;;;;;;;3.00;2.30;;;;;;;;;;4984784;28;20033;-77
2023/04/18 10:06:40;;;;;;;3.80;2.58;;;;;;;;;;4986742;28;20102;-78
2023/04/18 10:09:08;;;;;;;4.13;2.70;;;;;;;;;;4984800;28;20015;-78
2023/04/18 10:11:34;;;;;;;7.10;3.00;;;;;;;;;;4967073;28;20077;-77
2023/04/18 10:14:08;;;;;;;3.63;2.50;;;;;;;;;;4984776;28;20030;-77
2023/04/18 10:16:34;;;;;;;5.75;2.60;;;;;;;;;;4972745;28;20022;-78
2023/04/18 10:19:20;;;;;;;4.43;3.15;;;;;;;;;;4985513;28;20061;-78
2023/04/18 10:21:56;;;;;;;4.50;3.08;;;;;;;;;;4979785;28;20106;-78
2023/04/18 10:24:41;;;;;;;3.40;2.97;;;;;;;;;;4983477;28;20639;-78
2023/04/18 10:27:07;;;;;;;3.95;2.97;;;;;;;;;;4983263;28;20406;-77
2023/04/18 10:29:49;;;;;;;6.78;3.30;;;;;;;;;;4984329;28;20687;-79
2023/04/18 10:32:15;;;;;;;6.90;2.30;;;;;;;;;;4984518;28;20122;-78
2023/04/18 10:34:41;;;;;;;6.30;3.35;;;;;;;;;;4984383;28;20022;-79
2023/04/18 10:37:08;;;;;;;5.57;3.30;;;;;;;;;;4966673;28;20029;-77
2023/04/18 10:39:47;;;;;;;4.18;2.78;;;;;;;;;;4983474;28;20035;-77
2023/04/18 10:42:13;;;;;;;6.35;3.40;;;;;;;;;;4982666;28;20030;-78
2023/04/18 10:44:39;;;;;;;9.10;3.13;;;;;;;;;;4981446;28;20041;-77
2023/04/18 10:47:09;;;;;;;4.07;2.85;;;;;;;;;;4985929;28;20113;-78
2023/04/18 10:49:38;;;;;;;5.32;2.95;;;;;;;;;;4997891;28;20026;-78
2023/04/18 10:52:05;;;;;;;4.85;3.47;;;;;;;;;;4985131;28;20093;-78
2023/04/18 10:54:37;;;;;;;7.30;3.50;;;;;;;;;;4983467;28;20027;-79
2023/04/18 10:57:06;;;;;;;6.03;4.35;;;;;;;;;;4981862;28;20022;-78
2023/04/18 10:59:33;;;;;;;7.70;6.90;;;;;;;;;;4982219;28;20038;-80
2023/04/18 11:02:05;;;;;;;7.63;6.85;;;;;;;;;;4983333;28;20109;-78
2023/04/18 11:04:31;;;;;;;7.18;5.10;;;;;;;;;;4983655;28;20113;-78
2023/04/18 11:06:58;;;;;;;4.95;4.35;;;;;;;;;;4984093;28;20113;-79
2023/04/18 11:09:24;;;;;;;6.80;4.15;;;;;;;;;;4982751;28;20092;-78
2023/04/18 11:12:04;;;;;;;4.55;3.90;;;;;;;;;;4982838;28;20030;-79
2023/04/18 11:14:41;;;;;;;6.47;4.88;;;;;;;;;;4984841;28;20053;-80
2023/04/18 11:17:23;;;;;;;5.85;4.28;;;;;;;;;;4985020;28;20530;-77
2023/04/18 11:19:50;;;;;;;5.47;3.92;;;;;;;;;;4980446;28;20054;-79
2023/04/18 11:22:17;;;;;;;6.88;4.35;;;;;;;;;;4983081;28;20026;-79
2023/04/18 11:24:44;;;;;;;6.32;4.80;;;;;;;;;;4982919;28;20038;-79
2023/04/18 11:27:11;;;;;;;5.20;4.72;;;;;;;;;;4982540;28;20022;-78
2023/04/18 11:29:38;;;;;;;6.65;5.25;;;;;;;;;;4982340;28;20018;-78
2023/04/18 11:32:07;;;;;;;5.57;4.93;;;;;;;;;;4979980;28;20034;-78
2023/04/18 11:34:34;;;;;;;6.22;5.63;;;;;;;;;;4965804;28;20038;-78
2023/04/18 11:37:01;;;;;;;8.35;7.50;;;;;;;;;;4983813;28;20018;-79
2023/04/18 11:39:27;;;;;;;7.57;6.85;;;;;;;;;;4981578;28;20061;-79
2023/04/18 11:41:55;;;;;;;8.05;6.68;;;;;;;;;;4982540;28;20022;-79
2023/04/18 11:44:25;;;;;;;9.55;8.43;;;;;;;;;;4984159;28;20034;-79
2023/04/18 11:46:51;;;;;;;7.35;6.65;;;;;;;;;;4984485;28;20031;-78
2023/04/18 11:49:26;;;;;;;10.50;5.88;;;;;;;;;;4985801;28;20176;-80
2023/04/18 11:51:52;;;;;;;5.97;5.30;;;;;;;;;;4983027;28;20030;-78
2023/04/18 11:54:37;;;;;;;6.18;5.60;;;;;;;;;;4980187;28;20018;-78
2023/04/18 11:57:04;;;;;;;7.15;5.55;;;;;;;;;;4981587;28;20191;-79
2023/04/18 11:59:31;;;;;;;8.68;5.88;;;;;;;;;;4981008;28;20058;-76
2023/04/18 12:02:01;;;;;;;7.57;5.65;;;;;;;;;;4979834;28;20038;-78
2023/04/18 12:04:27;;;;;;;9.50;5.90;;;;;;;;;;4981823;28;20106;-80
2023/04/18 12:06:54;;;;;;;7.07;5.15;;;;;;;;;;4982100;28;20611;-79
2023/04/18 12:09:21;;;;;;;9.25;7.63;;;;;;;;;;4981492;28;20037;-80
2023/04/18 12:12:00;;;;;;;10.52;8.50;;;;;;;;;;4982234;28;20065;-79
2023/04/18 12:14:27;;;;;;;8.15;7.03;;;;;;;;;;4987292;28;20502;-80
2023/04/18 12:16:53;;;;;;;6.57;5.28;;;;;;;;;;4982687;28;20049;-79
2023/04/18 12:19:20;;;;;;;6.40;4.85;;;;;;;;;;4984654;28;20081;-79
2023/04/18 12:22:03;;;;;;;5.10;4.60;;;;;;;;;;4981150;28;20514;-78
2023/04/18 12:24:31;;;;;;;5.95;4.25;;;;;;;;;;4981171;28;20487;-78
2023/04/18 12:26:57;;;;;;;4.38;3.97;;;;;;;;;;4982772;28;20033;-80
2023/04/18 12:29:24;;;;;;;6.10;3.92;;;;;;;;;;4979928;28;20097;-81
2023/04/18 12:31:50;;;;;;;6.07;4.40;;;;;;;;;;4983305;28;20052;-80
2023/04/18 12:34:16;;;;;;;7.93;4.63;;;;;;;;;;4980946;28;20150;-78
2023/04/18 12:36:43;;;;;;;5.15;3.38;;;;;;;;;;4982823;28;20052;-78
2023/04/18 12:39:09;;;;;;;7.22;3.50;;;;;;;;;;4965677;28;20026;-80
2023/04/18 12:41:35;;;;;;;5.63;3.90;;;;;;;;;;4982923;28;20050;-78
2023/04/18 12:44:02;;;;;;;6.28;3.83;;;;;;;;;;4980688;28;20018;-80
2023/04/18 12:46:28;;;;;;;6.72;4.90;;;;;;;;;;4982404;28;20030;-79
2023/04/18 12:48:56;;;;;;;7.22;4.80;;;;;;;;;;4985367;28;20106;-78
2023/04/18 12:51:22;;;;;;;9.70;4.95;;;;;;;;;;4983383;28;20622;-79
2023/04/18 12:53:49;;;;;;;7.13;5.47;;;;;;;;;;4982163;28;20042;-77
2023/04/18 12:56:15;;;;;;;6.13;4.75;;;;;;;;;;4980341;28;20116;-78
2023/04/18 12:58:41;;;;;;;6.05;4.22;;;;;;;;;;4981335;28;20041;-76
2023/04/18 13:01:08;;;;;;;5.13;3.90;;;;;;;;;;4984077;28;20022;-78
2023/04/18 13:03:34;;;;;;;4.30;3.78;;;;;;;;;;4983449;28;20594;-80
2023/04/18 13:06:00;;;;;;;5.93;3.78;;;;;;;;;;4982971;28;20486;-79
2023/04/18 13:08:26;;;;;;;5.70;3.72;;;;;;;;;;4982386;28;20619;-81
2023/04/18 13:10:52;;;;;;;5.93;3.33;;;;;;;;;;4980470;28;20113;-80
2023/04/18 13:13:18;;;;;;;10.27;6.93;;;;;;;;;;4983273;28;20367;-79
2023/04/18 13:15:45;;;;;;;7.57;5.93;;;;;;;;;;4985262;28;20076;-78
2023/04/18 13:18:11;;;;;;;10.65;5.80;;;;;;;;;;4985631;28;20018;-81
2023/04/18 13:20:37;;;;;;;7.10;5.78;;;;;;;;;;4988462;28;20091;-80
2023/04/18 13:23:03;;;;;;;6.32;5.25;;;;;;;;;;4982794;28;20034;-78
2023/04/18 13:25:30;;;;;;;9.93;7.00;;;;;;;;;;4985261;28;20041;-79
2023/04/18 13:27:57;;;;;;;7.38;5.63;;;;;;;;;;4984912;28;20025;-79
2023/04/18 13:30:23;;;;;;;7.60;5.18;;;;;;;;;;4985143;28;20117;-78
2023/04/18 13:32:50;;;;;;;6.13;5.30;;;;;;;;;;4965193;28;20037;-79
2023/04/18 13:35:16;;;;;;;8.13;5.32;;;;;;;;;;4985257;28;20037;-79
2023/04/18 13:37:42;;;;;;;13.75;6.70;;;;;;;;;;4985159;28;20110;-78
2023/04/18 13:40:09;;;;;;;10.85;6.25;;;;;;;;;;4984905;28;20030;-81
2023/04/18 13:42:35;;;;;;;14.52;4.60;;;;;;;;;;4983788;28;20682;-79
2023/04/18 13:45:02;;;;;;;8.98;5.30;;;;;;;;;;4984422;28;20026;-78
2023/04/18 13:47:28;;;;;;;8.32;4.80;;;;;;;;;;4984425;28;20033;-78
2023/04/18 13:49:56;;;;;;;6.53;3.65;;;;;;;;;;4984495;28;20033;-78
2023/04/18 13:52:22;;;;;;;5.35;3.50;;;;;;;;;;4982725;28;20109;-79
2023/04/18 13:54:49;;;;;;;11.38;2.97;;;;;;;;;;4985806;28;20418;-78
2023/04/18 13:57:15;;;;;;;11.30;3.70;;;;;;;;;;4985179;28;20108;-79
2023/04/18 13:59:41;;;;;;;4.57;2.78;;;;;;;;;;4984859;28;20025;-80
2023/04/18 14:02:08;;;;;;;9.38;4.60;;;;;;;;;;4985097;28;20064;-81
2023/04/18 14:04:34;;;;;;;8.70;5.10;;;;;;;;;;4982277;28;20410;-81
2023/04/18 14:07:00;;;;;;;9.07;3.53;;;;;;;;;;4985656;28;20037;-79
2023/04/18 14:09:26;;;;;;;9.07;5.20;;;;;;;;;;4984738;28;20022;-81
2023/04/18 14:11:53;;;;;;;10.13;6.55;;;;;;;;;;4985412;28;20034;-80
2023/04/18 14:14:19;;;;;;;10.05;4.70;;;;;;;;;;4984778;28;20084;-80
2023/04/18 14:16:45;;;;;;;5.00;3.90;;;;;;;;;;4982556;28;20030;-78
2023/04/18 14:19:11;;;;;;;4.68;2.90;;;;;;;;;;4982258;28;20038;-80
2023/04/18 14:21:37;;;;;;;5.70;3.13;;;;;;;;;;4985877;28;20081;-81
2023/04/18 14:24:05;;;;;;;4.97;3.13;;;;;;;;;;4984330;28;20054;-79
2023/04/18 14:26:31;;;;;;;5.75;3.70;;;;;;;;;;4984335;28;20074;-80
2023/04/18 14:28:57;;;;;;;6.82;3.53;;;;;;;;;;4981385;28;20030;-80
2023/04/18 14:31:23;;;;;;;6.90;3.67;;;;;;;;;;4983231;28;20034;-79
2023/04/18 14:33:49;;;;;;;6.90;4.03;;;;;;;;;;4986240;28;20113;-78
2023/04/18 14:36:16;;;;;;;9.63;4.90;;;;;;;;;;4984775;28;20026;-80
2023/04/18 14:38:42;;;;;;;11.15;5.13;;;;;;;;;;4984040;28;20526;-80
2023/04/18 14:41:08;;;;;;;9.10;4.93;;;;;;;;;;4983279;28;20088;-79
2023/04/18 14:43:34;;;;;;;8.00;3.80;;;;;;;;;;4984236;28;20022;-78